Time;durP1;ratioP1;P1;durP2;ratioP2;P2;SDS_P1;SDS_P2;PMS_P1;PMS_P2;Temp;Humidity;BMP_temperature;BMP_pressure;BME280_temperature;BME280_humidity;BME280_pressure;Samples;Min_cycle;Max_cycle;Signal;HPM_P1;HPM_P2
2022/05/01 00:00:06;;;;;;;3.92;1.77;;;10.10;87.70;;;9.90;nan;97890.16;171841;28;887;-71
2022/05/01 00:00:13;;;;;;;3.37;1.70;;;10.10;87.60;;;9.89;nan;97890.34;171197;28;1949;-72
2022/05/01 00:00:20;;;;;;;3.38;1.70;;;10.10;87.60;;;9.84;nan;97890.88;171030;28;931;-71
2022/05/01 00:00:27;;;;;;;3.38;1.70;;;10.10;87.70;;;9.85;nan;97889.00;171618;28;1855;-71
2022/05/01 00:00:33;;;;;;;3.50;1.68;;;10.10;87.60;;;9.81;nan;97883.13;171878;28;1426;-71
2022/05/01 00:00:39;;;;;;;3.55;1.63;;;10.10;87.60;;;9.82;nan;97887.50;172164;28;1375;-71
2022/05/01 00:00:45;;;;;;;3.70;1.65;;;10.10;88.30;;;9.80;nan;97886.84;172301;28;1010;-71
2022/05/01 00:00:51;;;;;;;3.27;1.57;;;10.10;87.60;;;9.67;nan;97865.88;172223;28;1059;-71
2022/05/01 00:00:57;;;;;;;4.05;1.55;;;10.10;87.60;;;9.81;nan;97880.44;171760;28;2046;-71
2022/05/01 00:01:03;;;;;;;3.72;1.50;;;10.10;87.70;;;9.85;nan;97891.69;171142;28;1659;-71
2022/05/01 00:01:09;;;;;;;3.42;1.48;;;10.10;87.70;;;9.84;nan;97885.50;172805;28;1334;-71
2022/05/01 00:01:15;;;;;;;3.23;1.43;;;10.10;87.80;;;9.82;nan;97880.28;172525;28;1188;-71
2022/05/01 00:01:21;;;;;;;4.10;1.50;;;10.10;87.80;;;9.86;nan;97890.69;171760;28;1410;-71
2022/05/01 00:01:27;;;;;;;3.40;1.45;;;10.10;88.00;;;9.89;nan;97885.81;170566;28;1385;-71
2022/05/01 00:01:33;;;;;;;3.55;1.48;;;10.10;88.20;;;9.93;nan;97886.31;171405;28;1463;-71
2022/05/01 00:01:39;;;;;;;3.84;1.60;;;10.10;88.50;;;9.91;nan;97891.00;171322;28;1304;-71
2022/05/01 00:01:45;;;;;;;4.15;1.70;;;10.10;88.90;;;9.90;nan;97879.41;171802;28;1272;-71
2022/05/01 00:01:51;;;;;;;3.50;1.67;;;10.10;89.30;;;9.97;nan;97882.25;171005;28;1265;-71
2022/05/01 00:01:58;;;;;;;3.15;1.70;;;10.00;89.60;;;9.98;nan;97890.16;170288;28;1186;-71
2022/05/01 00:02:04;;;;;;;3.10;1.60;;;10.10;90.00;;;9.98;nan;97881.25;171092;28;1082;-71
2022/05/01 00:02:10;;;;;;;2.90;1.50;;;10.10;90.20;;;10.02;nan;97888.78;172341;28;1247;-71
2022/05/01 00:02:16;;;;;;;2.92;1.45;;;10.10;90.40;;;10.04;nan;97885.94;171465;28;1126;-71
2022/05/01 00:02:22;;;;;;;3.22;1.48;;;10.10;90.40;;;10.04;nan;97883.25;170587;28;1381;-71
2022/05/01 00:02:28;;;;;;;3.80;1.50;;;10.00;90.30;;;10.06;nan;97882.03;171719;28;899;-71
2022/05/01 00:02:33;;;;;;;4.90;1.60;;;10.00;90.20;;;10.06;nan;97886.56;171832;28;1016;-71
2022/05/01 00:02:39;;;;;;;4.65;1.60;;;10.00;90.00;;;10.03;nan;97871.63;171771;28;896;-71
2022/05/01 00:02:45;;;;;;;4.38;1.65;;;10.10;90.00;;;10.05;nan;97883.03;171425;28;1496;-71
2022/05/01 00:02:51;;;;;;;4.13;1.60;;;10.10;89.70;;;10.04;nan;97872.47;171675;28;1284;-71
2022/05/01 00:02:57;;;;;;;3.42;1.60;;;10.10;89.40;;;10.11;nan;97886.88;171767;28;856;-71
2022/05/01 00:03:03;;;;;;;2.50;1.60;;;10.10;89.10;;;10.10;nan;97894.13;172301;28;1165;-71
2022/05/01 00:03:30;;;;;;;2.55;1.60;;;10.10;88.90;;;10.03;nan;97879.72;172321;28;1353;-71
2022/05/01 00:03:35;;;;;;;2.42;1.58;;;10.10;88.60;;;10.06;nan;97882.03;170456;28;1309;-71
2022/05/01 00:03:42;;;;;;;2.47;1.50;;;10.10;88.90;;;10.02;nan;97877.19;171084;28;989;-71
2022/05/01 00:03:49;;;;;;;2.33;1.40;;;10.10;88.20;;;10.06;nan;97882.03;171131;28;844;-71
2022/05/01 00:03:55;;;;;;;2.50;1.50;;;10.10;88.20;;;10.11;nan;97890.41;170328;29;1405;-71
2022/05/01 00:04:01;;;;;;;2.53;1.58;;;10.10;88.30;;;10.06;nan;97876.66;170275;29;1332;-71
2022/05/01 00:04:08;;;;;;;2.77;1.53;;;10.10;88.40;;;10.13;nan;97888.41;171433;28;1293;-71
2022/05/01 00:04:14;;;;;;;2.70;1.60;;;10.10;88.50;;;10.13;nan;97891.09;170908;28;1282;-71
2022/05/01 00:04:20;;;;;;;2.78;1.60;;;10.10;88.50;;;10.09;nan;97881.72;170741;28;1203;-71
2022/05/01 00:04:26;;;;;;;2.92;1.60;;;10.10;88.70;;;10.11;nan;97881.50;171523;28;1133;-71
2022/05/01 00:04:32;;;;;;;3.00;1.60;;;10.10;88.60;;;10.07;nan;97878.34;171500;28;1413;-71
2022/05/01 00:04:38;;;;;;;2.78;1.66;;;10.10;88.30;;;10.12;nan;97889.41;171788;28;971;-71
2022/05/01 00:04:45;;;;;;;2.70;1.60;;;10.10;88.10;;;10.10;nan;97891.44;171685;28;1315;-71
2022/05/01 00:04:51;;;;;;;2.57;1.60;;;10.10;87.90;;;10.10;nan;97888.75;171090;28;1227;-71
2022/05/01 00:04:57;;;;;;;2.83;1.60;;;10.10;87.80;;;10.05;nan;97880.34;170876;28;915;-71
2022/05/01 00:05:03;;;;;;;2.88;1.50;;;10.10;87.90;;;10.04;nan;97878.69;170859;28;1148;-72
2022/05/01 00:05:09;;;;;;;2.75;1.42;;;10.10;88.00;;;10.12;nan;97886.72;171106;28;923;-71
2022/05/01 00:05:15;;;;;;;2.50;1.40;;;10.10;87.90;;;10.08;nan;97884.56;170966;28;1052;-71
2022/05/01 00:05:21;;;;;;;2.38;1.40;;;10.10;88.00;;;10.07;nan;97872.97;171814;28;936;-71
2022/05/01 00:05:29;;;;;;;2.07;1.40;;;10.10;88.40;;;10.13;nan;97883.03;170803;28;1312;-71
2022/05/01 00:05:35;;;;;;;2.07;1.37;;;10.10;89.00;;;9.94;nan;97848.50;171842;28;855;-72
2022/05/01 00:05:41;;;;;;;2.28;1.38;;;10.10;89.80;;;10.13;nan;97891.09;172234;28;1302;-71
2022/05/01 00:05:47;;;;;;;2.40;1.50;;;10.10;90.10;;;10.13;nan;97885.72;172990;28;1232;-72
2022/05/01 00:05:53;;;;;;;2.22;1.50;;;10.10;90.30;;;10.12;nan;97880.50;172059;28;1261;-71
2022/05/01 00:06:11;;;;;;;2.45;1.65;;;10.10;90.50;;;10.14;nan;97889.25;171482;28;1278;-71
2022/05/01 00:06:19;;;;;;;2.83;1.69;;;10.00;90.60;;;10.14;nan;97886.56;170925;28;1218;-71
2022/05/01 00:06:25;;;;;;;4.58;1.73;;;10.00;90.50;;;10.11;nan;97885.03;171553;28;1279;-71
2022/05/01 00:06:33;;;;;;;4.68;1.70;;;10.00;90.70;;;10.10;nan;97888.75;171733;28;1160;-71
2022/05/01 00:06:39;;;;;;;4.70;1.70;;;10.00;90.80;;;10.10;nan;97891.44;171625;28;1950;-71
2022/05/01 00:06:45;;;;;;;4.57;1.67;;;10.00;90.90;;;10.03;nan;97877.03;171502;28;1348;-71
2022/05/01 00:06:51;;;;;;;3.67;1.58;;;10.00;91.00;;;10.11;nan;97885.03;171131;28;894;-71
2022/05/01 00:06:57;;;;;;;2.83;1.40;;;10.00;91.00;;;10.10;nan;97886.03;171656;28;1308;-71
2022/05/01 00:07:04;;;;;;;3.00;1.40;;;10.00;90.90;;;10.05;nan;97877.66;172142;28;1295;-72
2022/05/01 00:07:12;;;;;;;3.12;1.40;;;10.00;90.80;;;10.07;nan;97883.72;171194;28;3381;-71
2022/05/01 00:07:18;;;;;;;3.20;1.40;;;10.00;90.90;;;10.06;nan;97873.13;172377;28;1076;-71
2022/05/01 00:07:24;;;;;;;3.33;1.45;;;10.00;90.90;;;10.08;nan;97877.34;171604;28;1388;-71
2022/05/01 00:07:30;;;;;;;3.47;1.60;;;10.00;90.90;;;10.08;nan;97885.41;172160;28;1617;-71
2022/05/01 00:07:36;;;;;;;3.42;1.60;;;10.00;90.90;;;10.11;nan;97887.72;172254;28;1142;-71
2022/05/01 00:07:42;;;;;;;3.13;1.67;;;10.00;90.90;;;10.09;nan;97889.78;172122;28;1430;-71
2022/05/01 00:07:48;;;;;;;4.35;1.80;;;10.00;91.00;;;10.07;nan;97877.50;171793;28;934;-71
2022/05/01 00:07:54;;;;;;;4.25;1.80;;;10.00;91.00;;;10.12;nan;97881.34;170743;28;1215;-71
2022/05/01 00:07:59;;;;;;;4.00;1.70;;;10.00;90.80;;;10.12;nan;97884.03;170387;28;1408;-71
2022/05/01 00:08:06;;;;;;;3.67;1.65;;;10.00;90.70;;;10.11;nan;97882.34;171128;28;1327;-71
2022/05/01 00:08:12;;;;;;;3.78;1.68;;;10.00;90.80;;;10.11;nan;97885.03;171400;28;1732;-71
2022/05/01 00:08:18;;;;;;;2.30;1.60;;;10.00;90.90;;;10.11;nan;97887.72;171559;28;927;-71
2022/05/01 00:08:24;;;;;;;2.37;1.60;;;10.00;90.90;;;10.09;nan;97887.09;171040;28;1079;-71
2022/05/01 00:08:38;;;;;;;3.22;1.67;;;10.00;90.90;;;10.08;nan;97881.88;171093;28;1054;-71
2022/05/01 00:08:44;;;;;;;3.66;1.66;;;10.00;91.00;;;10.11;nan;97887.72;171350;28;1959;-71
2022/05/01 00:08:50;;;;;;;3.88;1.65;;;10.00;91.10;;;10.05;nan;97871.47;172112;28;1290;-71
2022/05/01 00:08:56;;;;;;;3.88;1.65;;;10.00;91.00;;;10.10;nan;97882.56;172330;28;1483;-71
2022/05/01 00:09:03;;;;;;;3.70;1.65;;;10.00;91.10;;;10.05;nan;97874.97;171599;28;1104;-71
2022/05/01 00:09:09;;;;;;;3.52;1.60;;;10.00;91.20;;;10.06;nan;97876.66;171614;28;1615;-71
2022/05/01 00:09:15;;;;;;;3.42;1.63;;;10.00;91.20;;;10.06;nan;97876.66;172233;28;1160;-71
2022/05/01 00:09:21;;;;;;;3.47;1.65;;;10.00;91.10;;;10.05;nan;97874.97;172518;28;851;-71
2022/05/01 00:09:27;;;;;;;2.72;1.60;;;10.00;91.20;;;10.10;nan;97886.03;171153;28;1164;-71
2022/05/01 00:09:33;;;;;;;2.53;1.60;;;10.00;90.70;;;10.11;nan;97889.59;170560;29;860;-71
2022/05/01 00:09:40;;;;;;;2.53;1.70;;;10.00;90.50;;;10.08;nan;97880.03;172115;28;1701;-71
2022/05/01 00:09:46;;;;;;;2.42;1.64;;;10.00;90.30;;;10.02;nan;97869.13;172913;28;1534;-72
2022/05/01 00:09:52;;;;;;;2.30;1.50;;;10.00;90.10;;;10.06;nan;97890.09;172111;28;1210;-71
2022/05/01 00:09:58;;;;;;;2.55;1.48;;;10.00;90.00;;;10.02;nan;97883.41;172455;28;804;-71
2022/05/01 00:10:06;;;;;;;3.00;1.47;;;10.00;89.70;;;10.02;nan;97888.78;173082;28;1041;-71
2022/05/01 00:10:12;;;;;;;3.00;1.40;;;10.00;89.30;;;9.93;nan;97871.00;171737;28;1699;-71
2022/05/01 00:10:18;;;;;;;2.92;1.45;;;10.00;89.00;;;9.92;nan;97874.69;170510;28;1292;-71
2022/05/01 00:10:24;;;;;;;2.97;1.55;;;10.00;88.80;;;9.94;nan;97880.75;171771;28;1047;-71
2022/05/01 00:10:30;;;;;;;2.47;1.63;;;10.00;88.60;;;9.94;nan;97871.84;171805;28;1590;-71
2022/05/01 00:10:37;;;;;;;2.33;1.60;;;10.00;88.50;;;9.98;nan;97883.94;171895;28;1478;-70
2022/05/01 00:10:43;;;;;;;2.64;1.70;;;10.00;88.30;;;9.93;nan;97873.69;172562;28;1397;-71
2022/05/01 00:10:49;;;;;;;2.60;1.60;;;10.00;88.20;;;9.94;nan;97879.91;172692;28;1230;-71
2022/05/01 00:10:55;;;;;;;2.63;1.60;;;10.00;88.20;;;9.90;nan;97871.34;172456;28;824;-71
2022/05/01 00:11:02;;;;;;;2.55;1.50;;;10.00;88.10;;;9.92;nan;97872.00;171636;28;902;-71
2022/05/01 00:11:08;;;;;;;2.58;1.50;;;10.00;88.10;;;9.96;nan;97881.41;170979;28;2860;-72
2022/05/01 00:11:14;;;;;;;2.47;1.58;;;10.00;88.20;;;9.94;nan;97878.06;172087;28;1372;-71
2022/05/01 00:11:20;;;;;;;2.67;1.58;;;10.00;88.50;;;9.96;nan;97877.88;171931;28;1958;-71
2022/05/01 00:11:28;;;;;;;2.72;1.52;;;10.00;88.60;;;9.98;nan;97878.56;172252;28;1279;-71
2022/05/01 00:11:34;;;;;;;4.30;1.60;;;10.00;88.50;;;10.02;nan;97882.56;171192;28;841;-71
2022/05/01 00:11:41;;;;;;;3.90;1.43;;;10.00;88.40;;;9.91;nan;97874.88;171324;28;1385;-71
2022/05/01 00:11:47;;;;;;;3.75;1.38;;;10.00;88.20;;;9.83;nan;97865.00;171119;28;1200;-72
2022/05/01 00:11:53;;;;;;;3.60;1.40;;;10.00;88.00;;;9.90;nan;97890.16;172163;28;1076;-71
2022/05/01 00:11:59;;;;;;;3.45;1.38;;;10.10;88.00;;;9.90;nan;97886.63;172299;28;1395;-71
2022/05/01 00:12:07;;;;;;;2.07;1.30;;;10.00;88.00;;;9.89;nan;97875.06;172173;28;1290;-71
2022/05/01 00:12:13;;;;;;;2.45;1.43;;;10.10;87.80;;;9.93;nan;97889.84;171974;28;1740;-71
2022/05/01 00:12:20;;;;;;;2.50;1.50;;;10.00;87.80;;;9.93;nan;97889.00;171484;28;1364;-71
2022/05/01 00:12:26;;;;;;;2.43;1.50;;;10.10;87.80;;;9.96;nan;97883.25;170601;28;1406;-71
2022/05/01 00:12:32;;;;;;;2.53;1.60;;;10.10;87.80;;;9.99;nan;97882.94;171591;28;1179;-71
2022/05/01 00:12:38;;;;;;;2.44;1.70;;;10.00;87.70;;;9.92;nan;97876.56;171563;28;1598;-71
2022/05/01 00:12:44;;;;;;;2.35;1.70;;;10.00;87.60;;;9.91;nan;97886.47;172193;28;1216;-71
2022/05/01 00:12:50;;;;;;;2.63;1.70;;;10.00;87.60;;;9.93;nan;97884.44;170400;29;1293;-71
2022/05/01 00:12:56;;;;;;;2.72;1.67;;;10.00;87.50;;;9.87;nan;97881.59;171104;28;1097;-71
2022/05/01 00:13:02;;;;;;;2.78;1.67;;;10.00;87.50;;;9.84;nan;97881.97;171513;28;1408;-71
2022/05/01 00:13:08;;;;;;;2.93;1.53;;;10.00;87.40;;;9.88;nan;97886.81;172480;28;891;-71
2022/05/01 00:13:15;;;;;;;3.43;1.53;;;10.00;87.30;;;9.82;nan;97876.75;170917;28;1162;-71
2022/05/01 00:13:22;;;;;;;3.44;1.52;;;10.00;87.30;;;9.80;nan;97873.38;171933;28;1823;-71
2022/05/01 00:13:29;;;;;;;3.53;1.58;;;10.00;87.20;;;9.78;nan;97870.06;172057;28;1388;-71
2022/05/01 00:13:36;;;;;;;3.54;1.60;;;10.00;87.20;;;9.85;nan;97886.31;171639;28;1469;-71
2022/05/01 00:13:46;;;;;;;3.14;1.68;;;10.00;87.30;;;9.80;nan;97884.13;172199;28;1416;-71
2022/05/01 00:13:52;;;;;;;2.56;1.61;;;10.00;87.20;;;9.76;nan;97880.97;171986;28;1667;-71
2022/05/01 00:13:58;;;;;;;2.26;1.64;;;10.00;87.30;;;9.76;nan;97880.13;171735;28;1259;-71
2022/05/01 00:14:04;;;;;;;2.47;1.77;;;10.00;87.30;;;9.76;nan;97878.28;172921;28;1254;-71
2022/05/01 00:14:10;;;;;;;2.43;1.70;;;10.00;87.40;;;9.82;nan;97888.34;172335;28;1251;-71
2022/05/01 00:14:17;;;;;;;2.92;1.80;;;10.00;87.30;;;9.79;nan;97887.88;172190;28;1365;-71
2022/05/01 00:14:23;;;;;;;3.03;1.77;;;10.00;87.30;;;9.76;nan;97886.34;171679;28;1302;-71
2022/05/01 00:14:29;;;;;;;3.20;1.75;;;10.00;87.30;;;9.68;nan;97874.78;171911;28;1303;-71
2022/05/01 00:14:35;;;;;;;3.42;1.70;;;10.00;87.30;;;9.74;nan;97884.84;172338;28;1549;-72
2022/05/01 00:14:41;;;;;;;3.40;1.70;;;10.00;87.30;;;9.70;nan;97872.75;172418;28;831;-71
2022/05/01 00:14:46;;;;;;;3.10;1.70;;;10.00;87.20;;;9.69;nan;97879.13;172357;28;1348;-71
2022/05/01 00:14:52;;;;;;;3.28;1.73;;;10.00;87.20;;;9.66;nan;97872.25;171173;28;931;-71
2022/05/01 00:14:58;;;;;;;3.20;1.70;;;10.00;87.20;;;9.71;nan;97882.50;170875;28;1068;-71
2022/05/01 00:15:06;;;;;;;2.90;1.60;;;10.00;87.20;;;9.71;nan;97890.56;170992;28;1156;-71
2022/05/01 00:15:11;;;;;;;4.66;1.60;;;10.00;87.20;;;9.66;nan;97871.41;171255;28;1391;-71
2022/05/01 00:15:18;;;;;;;4.70;1.58;;;10.00;87.30;;;9.67;nan;97870.41;171697;28;1432;-71
2022/05/01 00:15:24;;;;;;;4.55;1.55;;;10.00;87.30;;;9.72;nan;97881.50;172329;28;1158;-72
2022/05/01 00:15:29;;;;;;;4.40;1.52;;;10.00;87.30;;;9.71;nan;97891.41;171398;28;1796;-71
2022/05/01 00:15:35;;;;;;;4.40;1.45;;;10.00;87.40;;;9.70;nan;97884.34;173088;28;1178;-71
2022/05/01 00:15:42;;;;;;;2.67;1.58;;;10.00;87.40;;;9.70;nan;97887.03;171767;28;1205;-71
2022/05/01 00:15:49;;;;;;;3.13;1.60;;;10.00;87.50;;;9.69;nan;97881.81;171772;28;923;-71
2022/05/01 00:15:55;;;;;;;2.96;1.54;;;10.00;87.50;;;9.72;nan;97890.41;170707;28;1181;-71
2022/05/01 00:16:01;;;;;;;3.00;1.50;;;10.00;87.50;;;9.72;nan;97884.19;171803;28;942;-71
2022/05/01 00:16:07;;;;;;;2.96;1.54;;;10.00;87.60;;;9.73;nan;97881.31;171468;28;1199;-71
2022/05/01 00:16:14;;;;;;;2.87;1.50;;;10.00;88.00;;;9.80;nan;97892.22;171641;28;1301;-71
2022/05/01 00:16:20;;;;;;;3.67;1.50;;;10.00;88.10;;;9.76;nan;97877.44;171561;28;1399;-71
2022/05/01 00:16:26;;;;;;;4.27;1.73;;;10.00;88.40;;;9.77;nan;97882.66;171166;28;1121;-71
2022/05/01 00:16:32;;;;;;;4.10;1.73;;;10.00;88.50;;;9.82;nan;97891.03;172158;28;1282;-71
2022/05/01 00:16:38;;;;;;;3.95;1.70;;;10.00;89.00;;;9.81;nan;97883.13;171763;28;900;-71
2022/05/01 00:16:44;;;;;;;3.80;1.73;;;10.00;89.40;;;9.79;nan;97875.22;170807;28;1583;-71
2022/05/01 00:16:50;;;;;;;2.80;1.70;;;10.00;89.70;;;9.87;nan;97890.53;170405;29;848;-71
2022/05/01 00:16:56;;;;;;;2.55;1.58;;;10.00;90.00;;;9.85;nan;97881.78;170384;28;1378;-71
2022/05/01 00:17:03;;;;;;;2.50;1.42;;;10.00;90.10;;;9.86;nan;97877.22;172184;28;1585;-71
2022/05/01 00:17:09;;;;;;;3.05;1.50;;;10.00;90.10;;;9.91;nan;97886.47;172446;28;3663;-71
2022/05/01 00:17:14;;;;;;;3.63;1.50;;;10.00;90.10;;;9.89;nan;97879.59;172428;28;1718;-71
2022/05/01 00:17:20;;;;;;;3.53;1.48;;;10.00;90.00;;;9.91;nan;97883.78;172438;28;990;-71
2022/05/01 00:17:26;;;;;;;3.65;1.48;;;10.00;89.80;;;9.90;nan;97876.72;172039;28;1355;-71
2022/05/01 00:17:33;;;;;;;4.07;1.70;;;10.00;89.50;;;9.98;nan;97889.31;171812;28;1054;-71
2022/05/01 00:17:39;;;;;;;3.30;1.50;;;10.00;89.20;;;9.94;nan;97880.75;171428;28;1005;-71
2022/05/01 00:17:44;;;;;;;2.70;1.45;;;10.00;89.00;;;9.93;nan;97876.38;172544;28;1042;-71
2022/05/01 00:17:50;;;;;;;2.60;1.40;;;10.00;88.80;;;9.93;nan;97876.38;171485;28;1238;-71
2022/05/01 00:17:57;;;;;;;2.88;1.45;;;10.00;88.50;;;9.93;nan;97884.44;171743;28;1352;-71
2022/05/01 00:18:04;;;;;;;2.67;1.42;;;10.00;88.40;;;9.90;nan;97887.47;171695;28;1523;-71
2022/05/01 00:18:09;;;;;;;2.92;1.60;;;10.00;88.10;;;9.91;nan;97891.84;171535;28;1309;-71
2022/05/01 00:18:16;;;;;;;3.13;1.70;;;10.00;87.90;;;9.90;nan;97892.00;172110;28;1764;-71
2022/05/01 00:18:23;;;;;;;3.26;1.78;;;10.00;87.80;;;9.82;nan;97882.13;171578;28;1424;-72
2022/05/01 00:18:29;;;;;;;2.97;1.67;;;10.00;87.70;;;9.83;nan;97886.50;171027;28;869;-71
2022/05/01 00:18:36;;;;;;;3.03;1.57;;;10.00;87.60;;;9.78;nan;97881.66;171010;28;1091;-72
2022/05/01 00:18:42;;;;;;;3.00;1.50;;;10.00;88.40;;;9.80;nan;97884.13;171630;28;1393;-71
2022/05/01 00:18:48;;;;;;;2.92;1.42;;;10.00;87.70;;;9.83;nan;97889.19;171537;28;1334;-71
2022/05/01 00:18:54;;;;;;;2.88;1.48;;;10.00;87.80;;;9.85;nan;97886.31;171819;28;926;-71
2022/05/01 00:19:00;;;;;;;2.67;1.50;;;10.00;88.00;;;9.85;nan;97889.84;171249;28;1095;-71
2022/05/01 00:19:10;;;;;;;2.60;1.44;;;10.00;88.20;;;9.82;nan;97882.13;171798;28;907;-71
2022/05/01 00:19:16;;;;;;;2.79;1.48;;;10.00;88.10;;;9.89;nan;97884.97;171748;28;1228;-71
2022/05/01 00:19:22;;;;;;;3.07;1.47;;;10.00;88.20;;;9.86;nan;97883.47;172239;28;1926;-71
2022/05/01 00:19:28;;;;;;;3.95;1.55;;;9.90;88.10;;;9.92;nan;97885.47;172307;28;977;-71
2022/05/01 00:19:34;;;;;;;3.97;1.60;;;10.00;88.20;;;9.88;nan;97883.28;172489;28;955;-71
2022/05/01 00:19:40;;;;;;;3.72;1.52;;;10.00;88.40;;;9.86;nan;97870.00;172802;28;1304;-71
2022/05/01 00:19:46;;;;;;;3.95;1.63;;;10.00;88.80;;;9.81;nan;97859.78;172368;28;1231;-71
2022/05/01 00:19:52;;;;;;;3.67;1.67;;;10.00;89.20;;;9.93;nan;97881.75;172105;28;1205;-71
2022/05/01 00:19:57;;;;;;;2.80;1.63;;;10.00;89.70;;;9.92;nan;97877.41;171781;28;1925;-71
2022/05/01 00:20:05;;;;;;;3.22;1.60;;;10.00;90.20;;;9.94;nan;97879.91;172334;28;1046;-71
2022/05/01 00:20:11;;;;;;;3.10;1.72;;;9.90;90.00;;;9.91;nan;97873.03;171899;28;1485;-71
2022/05/01 00:20:17;;;;;;;4.63;1.73;;;10.00;90.00;;;9.94;nan;97870.00;171389;28;1076;-71
2022/05/01 00:20:23;;;;;;;4.90;1.80;;;9.90;89.80;;;9.93;nan;97873.69;171752;28;2049;-71
2022/05/01 00:20:29;;;;;;;5.15;1.80;;;9.90;89.50;;;10.01;nan;97879.03;172259;28;1045;-71
2022/05/01 00:20:36;;;;;;;4.90;1.70;;;10.00;89.20;;;9.96;nan;97876.03;172089;28;1612;-71
2022/05/01 00:20:42;;;;;;;4.83;1.60;;;9.90;88.80;;;9.96;nan;97875.19;172008;28;1315;-71
2022/05/01 00:20:48;;;;;;;3.20;1.50;;;10.00;88.60;;;9.98;nan;97881.25;171727;28;1307;-71
2022/05/01 00:20:54;;;;;;;2.90;1.33;;;10.00;88.40;;;9.96;nan;97875.19;171159;28;991;-71
2022/05/01 00:21:00;;;;;;;2.37;1.27;;;10.00;88.20;;;9.94;nan;97877.22;171562;28;1123;-71
2022/05/01 00:21:07;;;;;;;2.47;1.33;;;9.90;88.00;;;9.91;nan;97877.56;172415;28;1030;-71
2022/05/01 00:21:12;;;;;;;2.60;1.40;;;10.00;88.10;;;9.85;nan;97867.50;172428;28;1285;-71
2022/05/01 00:21:19;;;;;;;3.13;1.50;;;10.00;88.30;;;9.88;nan;97867.16;173078;28;1473;-71
2022/05/01 00:21:24;;;;;;;3.27;1.60;;;9.90;88.80;;;9.84;nan;97855.09;171295;28;1000;-71
2022/05/01 00:21:30;;;;;;;3.42;1.65;;;10.00;89.60;;;9.89;nan;97866.16;171853;28;1229;-71
2022/05/01 00:21:37;;;;;;;3.13;1.55;;;10.00;90.10;;;9.88;nan;97873.38;172250;28;1150;-71
2022/05/01 00:21:43;;;;;;;3.00;1.50;;;9.90;90.30;;;9.91;nan;97877.56;171188;28;1061;-71
2022/05/01 00:21:49;;;;;;;2.40;1.50;;;9.90;90.40;;;9.85;nan;97864.78;171860;28;1224;-71
2022/05/01 00:21:58;;;;;;;2.20;1.40;;;9.90;90.50;;;9.84;nan;97868.53;172069;28;1392;-71
2022/05/01 00:22:04;;;;;;;2.28;1.45;;;9.90;90.70;;;9.85;nan;97867.50;171534;28;1410;-72
2022/05/01 00:22:10;;;;;;;2.22;1.40;;;9.90;91.00;;;9.86;nan;97870.00;171043;28;1876;-71
2022/05/01 00:22:16;;;;;;;2.28;1.40;;;9.90;91.20;;;9.88;nan;97881.44;171010;28;1316;-71
2022/05/01 00:22:22;;;;;;;2.50;1.40;;;9.90;91.30;;;9.83;nan;97870.38;171091;28;1390;-72
2022/05/01 00:22:28;;;;;;;2.72;1.40;;;9.80;91.50;;;9.84;nan;97865.84;171321;28;1657;-71
2022/05/01 00:22:34;;;;;;;2.47;1.30;;;9.80;91.60;;;9.84;nan;97865.84;170323;28;1286;-71
2022/05/01 00:22:40;;;;;;;2.63;1.30;;;9.80;91.70;;;9.85;nan;97876.41;170365;29;950;-71
2022/05/01 00:22:46;;;;;;;2.80;1.40;;;9.80;91.90;;;9.79;nan;97874.44;170743;28;1251;-71
2022/05/01 00:22:52;;;;;;;2.83;1.50;;;9.80;92.00;;;9.84;nan;97885.50;171850;28;1041;-71
2022/05/01 00:22:58;;;;;;;2.78;1.50;;;9.80;92.10;;;9.80;nan;97876.91;171294;28;1195;-71
2022/05/01 00:23:04;;;;;;;2.80;1.50;;;9.70;92.20;;;9.80;nan;97874.22;171027;28;888;-71
2022/05/01 00:23:10;;;;;;;2.83;1.60;;;9.70;92.20;;;9.80;nan;97873.38;171776;28;963;-71
2022/05/01 00:23:16;;;;;;;2.53;1.60;;;9.70;92.30;;;9.73;nan;97865.19;171124;28;935;-71
2022/05/01 00:23:22;;;;;;;2.63;1.70;;;9.70;92.30;;;9.82;nan;97887.50;171560;28;1295;-71
2022/05/01 00:23:28;;;;;;;2.75;1.70;;;9.70;92.30;;;9.76;nan;97859.47;170922;28;1386;-71
2022/05/01 00:23:34;;;;;;;2.65;1.67;;;9.70;92.30;;;9.82;nan;97872.22;171201;28;1026;-71
2022/05/01 00:23:40;;;;;;;3.03;1.70;;;9.70;92.20;;;9.82;nan;97861.47;170907;28;1817;-71
2022/05/01 00:23:46;;;;;;;3.33;1.67;;;9.70;92.20;;;9.84;nan;97871.22;171133;28;891;-71
2022/05/01 00:23:52;;;;;;;4.75;1.52;;;9.70;92.30;;;9.85;nan;97881.78;171305;28;1320;-71
2022/05/01 00:23:58;;;;;;;5.50;1.50;;;9.70;92.30;;;9.86;nan;97878.06;171748;28;904;-71
2022/05/01 00:24:06;;;;;;;5.68;1.50;;;9.70;92.30;;;9.81;nan;97870.53;171464;28;1118;-71
2022/05/01 00:24:12;;;;;;;5.13;1.43;;;9.70;92.30;;;9.85;nan;97865.63;171782;28;1022;-72
2022/05/01 00:24:18;;;;;;;4.93;1.48;;;9.70;92.20;;;9.88;nan;97869.84;171221;28;1123;-71
2022/05/01 00:24:25;;;;;;;3.03;1.50;;;9.70;92.00;;;9.80;nan;97868.00;171527;28;1380;-71
2022/05/01 00:24:32;;;;;;;3.02;1.62;;;9.70;91.80;;;9.86;nan;97874.53;171343;28;1397;-71
2022/05/01 00:24:38;;;;;;;3.27;1.70;;;9.70;91.50;;;9.84;nan;97876.59;171732;28;1332;-71
2022/05/01 00:24:44;;;;;;;3.28;1.67;;;9.70;91.30;;;9.84;nan;97879.28;171071;28;1248;-71
2022/05/01 00:24:49;;;;;;;3.28;1.63;;;9.70;91.10;;;9.75;nan;97873.06;171800;28;816;-71
2022/05/01 00:24:55;;;;;;;3.53;1.60;;;9.70;90.90;;;9.76;nan;97877.44;172070;28;957;-71
2022/05/01 00:25:03;;;;;;;2.90;1.40;;;9.70;90.70;;;9.71;nan;97869.91;172253;28;1100;-71
2022/05/01 00:25:09;;;;;;;2.77;1.40;;;9.80;90.50;;;9.73;nan;97875.94;173118;28;1409;-71
2022/05/01 00:25:15;;;;;;;2.87;1.47;;;9.80;90.40;;;9.72;nan;97876.09;172970;28;1359;-71
2022/05/01 00:25:21;;;;;;;2.63;1.42;;;9.80;90.20;;;9.67;nan;97870.41;171664;28;1496;-71
2022/05/01 00:25:27;;;;;;;2.50;1.50;;;9.80;90.10;;;9.71;nan;97871.75;171643;28;1241;-71
2022/05/01 00:25:33;;;;;;;2.50;1.52;;;9.80;90.00;;;9.66;nan;97871.41;173225;28;998;-72
2022/05/01 00:25:42;;;;;;;2.87;1.57;;;9.80;89.90;;;9.64;nan;97868.88;173385;28;1343;-71
2022/05/01 00:25:48;;;;;;;2.53;1.40;;;9.80;89.80;;;9.66;nan;97872.25;172390;28;1319;-71
2022/05/01 00:25:54;;;;;;;2.22;1.30;;;9.80;89.70;;;9.63;nan;97867.25;171742;28;1002;-71
2022/05/01 00:26:04;;;;;;;2.40;1.43;;;9.80;89.60;;;9.65;nan;97877.78;170933;28;1610;-71
2022/05/01 00:26:11;;;;;;;2.36;1.49;;;9.80;89.60;;;9.59;nan;97870.41;172301;28;1683;-71
2022/05/01 00:26:17;;;;;;;2.90;1.63;;;9.80;89.60;;;9.69;nan;97884.50;172512;28;1220;-71
2022/05/01 00:26:23;;;;;;;3.42;1.90;;;9.80;89.50;;;9.66;nan;97876.78;173794;28;1013;-71
2022/05/01 00:26:29;;;;;;;3.72;1.88;;;9.80;89.60;;;9.66;nan;97876.78;172827;28;1059;-71
2022/05/01 00:26:35;;;;;;;3.67;1.80;;;9.80;89.60;;;9.64;nan;97876.13;171155;28;1729;-71
2022/05/01 00:26:41;;;;;;;3.83;1.90;;;9.80;89.50;;;9.62;nan;97867.41;172133;28;1364;-71
2022/05/01 00:26:47;;;;;;;3.88;1.90;;;9.80;89.60;;;9.64;nan;97871.56;172074;28;1916;-71
2022/05/01 00:26:53;;;;;;;3.45;1.73;;;9.90;89.80;;;9.58;nan;97864.22;172476;28;899;-71
2022/05/01 00:27:00;;;;;;;2.90;1.63;;;9.80;90.00;;;9.67;nan;97870.41;172226;28;1444;-72
2022/05/01 00:27:06;;;;;;;2.97;1.70;;;9.80;90.00;;;9.66;nan;97874.94;171498;28;2526;-71
2022/05/01 00:27:13;;;;;;;2.58;1.60;;;9.90;90.10;;;9.68;nan;97869.41;171621;28;1151;-71
2022/05/01 00:27:19;;;;;;;2.40;1.46;;;9.90;90.10;;;9.70;nan;97875.44;172088;28;1537;-71
2022/05/01 00:27:25;;;;;;;2.25;1.40;;;9.80;90.00;;;9.68;nan;97880.16;172090;28;973;-71
2022/05/01 00:27:31;;;;;;;2.40;1.40;;;9.80;90.00;;;9.65;nan;97869.72;172497;28;1576;-71
2022/05/01 00:27:37;;;;;;;2.30;1.33;;;9.80;89.90;;;9.67;nan;97867.72;172087;28;1333;-71
2022/05/01 00:27:43;;;;;;;2.42;1.40;;;9.90;89.90;;;9.67;nan;97873.09;172954;28;1192;-71
2022/05/01 00:27:48;;;;;;;2.20;1.40;;;9.90;89.90;;;9.68;nan;97877.47;172258;28;1189;-71
2022/05/01 00:27:55;;;;;;;2.22;1.50;;;9.90;90.00;;;9.71;nan;97880.66;172898;28;1235;-72
2022/05/01 00:28:01;;;;;;;2.70;1.60;;;9.80;90.10;;;9.68;nan;97866.72;172417;28;1088;-72
2022/05/01 00:28:11;;;;;;;2.60;1.50;;;9.90;90.30;;;9.72;nan;97871.56;171978;28;1544;-71
2022/05/01 00:28:18;;;;;;;2.69;1.42;;;9.80;90.40;;;9.75;nan;97878.44;172014;28;1430;-71
2022/05/01 00:28:24;;;;;;;2.67;1.40;;;9.80;90.40;;;9.72;nan;97876.94;170915;28;1135;-72
2022/05/01 00:28:36;;;;;;;2.17;1.40;;;9.80;90.40;;;9.76;nan;97875.59;172666;28;1067;-72
2022/05/01 00:28:42;;;;;;;2.58;1.50;;;9.80;90.50;;;9.71;nan;97867.22;171933;28;1243;-71